Time;durP1;ratioP1;P1;durP2;ratioP2;P2;SDS_P1;SDS_P2;PMS_P1;PMS_P2;Temp;Humidity;BMP_temperature;BMP_pressure;BME280_temperature;BME280_humidity;BME280_pressure;Samples;Min_cycle;Max_cycle;Signal;HPM_P1;HPM_P2
2022/10/11 00:05:19;;;;;;;7.23;4.40;;;;;;;16.16;100.00;98640.50;5218510;22;1294013;-95
2022/10/11 00:18:06;;;;;;;8.50;4.50;;;;;;;16.00;100.00;98646.25;5102076;22;1262611;-91
2022/10/11 00:46:12;;;;;;;10.93;4.87;;;;;;;16.01;100.00;98645.31;5035876;23;2713949;-93
2022/10/11 00:58:58;;;;;;;22.23;4.87;;;;;;;15.63;100.00;98648.38;5191648;22;1308475;-92
2022/10/11 01:20:35;;;;;;;8.50;3.50;;;;;;;15.21;100.00;98663.25;5092404;22;1273717;-92
2022/10/11 01:33:28;;;;;;;17.40;5.63;;;;;;;15.17;100.00;98664.47;5271584;22;1280092;-93
2022/10/11 01:57:19;;;;;;;10.70;4.17;;;;;;;14.92;100.00;98659.38;5030935;23;1269347;-93
2022/10/11 02:21:08;;;;;;;15.40;5.30;;;;;;;14.73;100.00;98660.88;5051742;23;1271969;-93
2022/10/11 02:42:43;;;;;;;7.30;5.13;;;;;;;14.91;100.00;98665.56;5164849;22;1241006;-93
2022/10/11 02:55:29;;;;;;;7.67;5.27;;;;;;;14.83;100.00;98678.44;5168098;22;1255776;-94
2022/10/11 03:08:17;;;;;;;10.40;5.10;;;;;;;14.72;100.00;98688.94;5219151;22;1271935;-93
2022/10/11 03:21:06;;;;;;;12.73;6.57;;;;;;;14.73;100.00;98697.66;5171105;22;1314363;-94
2022/10/11 03:33:51;;;;;;;8.90;5.33;;;;;;;14.85;100.00;98712.47;5154869;22;1586390;-93
2022/10/11 03:46:37;;;;;;;17.17;8.17;;;;;;;14.86;100.00;98719.41;5217345;22;1257898;-92
2022/10/11 04:01:37;;;;;;;16.13;8.00;;;;;;;14.84;100.00;98726.56;5150427;22;1301037;-92
2022/10/11 04:14:25;;;;;;;18.87;7.90;;;;;;;14.95;100.00;98739.75;5152934;22;1257309;-92
2022/10/11 04:27:09;;;;;;;11.43;7.07;;;;;;;14.97;100.00;98750.97;5195604;22;1257746;-91
2022/10/11 04:46:29;;;;;;;11.50;8.20;;;;;;;14.98;100.00;98752.66;5053768;22;4125743;-92
2022/10/11 04:48:50;;;;;;;12.93;8.73;;;;;;;15.00;100.00;98754.19;4156361;27;2609311;-94
2022/10/11 05:01:38;;;;;;;13.93;8.80;;;;;;;15.01;100.00;98766.38;5168871;22;1243338;-92
2022/10/11 05:16:33;;;;;;;12.30;8.67;;;;;;;15.05;100.00;98772.22;5031288;22;4149741;-94
2022/10/11 05:35:49;;;;;;;16.70;11.20;;;;;;;15.08;100.00;98788.63;5277393;22;20843;-93
2022/10/11 05:48:33;;;;;;;16.13;10.30;;;;;;;15.07;100.00;98815.00;5221481;22;1304269;-94
2022/10/11 06:05:42;;;;;;;17.20;11.30;;;;;;;15.05;100.00;98830.91;4965690;23;4053519;-94
2022/10/11 06:18:44;;;;;;;15.36;10.96;;;;;;;15.14;100.00;98852.06;5084487;22;18637624;-95
2022/10/11 06:31:29;;;;;;;15.20;11.67;;;;;;;15.22;100.00;98854.16;4428142;22;18589567;-93
2022/10/11 06:33:52;;;;;;;16.53;11.03;;;;;;;15.23;100.00;98861.94;3514290;27;21027580;-93
2022/10/11 06:46:51;;;;;;;17.17;12.57;;;;;;;15.27;100.00;98863.34;4958755;22;17831638;-93
2022/10/11 07:01:46;;;;;;;19.07;13.50;;;;;;;15.45;100.00;98877.75;4407940;22;17816543;-92
2022/10/11 07:27:00;;;;;;;30.07;18.70;;;;;;;16.41;100.00;98907.94;3601261;27;17898243;-91
2022/10/11 07:39:45;;;;;;;30.70;18.43;;;;;;;16.35;99.82;98909.25;4534923;22;15060383;-91
2022/10/11 07:42:09;;;;;;;28.17;21.37;;;;;;;16.32;100.00;98916.53;3727405;27;15046099;-91
2022/10/11 07:44:29;;;;;;;30.90;18.20;;;;;;;16.23;99.59;98909.38;3684784;27;15047963;-91
2022/10/11 07:46:49;;;;;;;31.33;19.20;;;;;;;16.15;100.00;98902.03;3715952;27;15044137;-91
2022/10/11 07:49:06;;;;;;;28.10;17.83;;;;;;;16.10;100.00;98913.84;3713189;27;15046900;-91
2022/10/11 08:01:54;;;;;;;28.13;16.90;;;;;;;15.99;100.00;98921.75;4124823;22;23932747;-91
2022/10/11 08:32:17;;;;;;;30.13;20.73;;;;;;;15.87;100.00;98933.22;4949996;22;18765947;-94
2022/10/11 08:34:40;;;;;;;30.43;20.20;;;;;;;15.95;100.00;98935.25;3584312;27;18618950;-93
2022/10/11 08:47:28;;;;;;;33.73;18.23;;;;;;;15.75;100.00;98934.13;4599413;22;15046785;-92
2022/10/11 08:49:34;;;;;;;28.87;19.77;;;;;;;15.71;100.00;98932.72;5197056;22;20174;-93
2022/10/11 08:51:42;;;;;;;34.33;19.43;;;;;;;15.69;99.51;98939.84;5220205;22;20580;-92
2022/10/11 08:53:51;;;;;;;32.40;19.80;;;;;;;15.65;100.00;98938.44;5196009;22;20579;-92
2022/10/11 08:55:55;;;;;;;29.03;18.60;;;;;;;15.66;100.00;98934.81;5221262;22;20608;-92
2022/10/11 08:57:59;;;;;;;25.37;18.87;;;;;;;15.64;100.00;98939.38;5195428;22;20607;-92
2022/10/11 09:00:11;;;;;;;31.10;18.73;;;;;;;15.70;100.00;98938.09;5196019;22;20681;-92
2022/10/11 09:02:21;;;;;;;30.80;21.70;;;;;;;15.74;100.00;98945.63;5221529;22;20580;-93
2022/10/11 09:04:27;;;;;;;27.40;18.13;;;;;;;15.83;100.00;98931.78;5193427;22;20624;-92
2022/10/11 09:06:42;;;;;;;27.83;18.90;;;;;;;15.96;100.00;98945.66;5165185;23;20647;-92
2022/10/11 09:08:59;;;;;;;29.50;18.67;;;;;;;16.02;98.61;98937.31;5170209;23;20833;-92
2022/10/11 09:11:08;;;;;;;23.90;17.63;;;;;;;16.07;99.82;98940.41;5193598;22;20573;-92
2022/10/11 09:13:29;;;;;;;29.90;17.80;;;;;;;16.14;100.00;98939.81;5196532;22;20604;-92
2022/10/11 09:15:45;;;;;;;29.67;18.07;;;;;;;16.26;99.04;98943.34;5195999;22;20750;-92
2022/10/11 09:18:18;;;;;;;27.60;19.27;;;;;;;16.39;99.85;98936.16;5196105;22;20573;-92
2022/10/11 09:20:46;;;;;;;30.47;17.07;;;;;;;16.46;99.53;98937.38;5195595;22;20635;-90
2022/10/11 09:22:55;;;;;;;25.97;16.60;;;;;;;16.43;98.31;98938.44;5158884;23;20598;-90
2022/10/11 09:25:18;;;;;;;24.63;15.20;;;;;;;16.43;97.54;98941.06;5191557;22;20569;-90
2022/10/11 09:27:29;;;;;;;25.23;15.23;;;;;;;16.43;97.45;98937.59;5164448;23;20587;-92
2022/10/11 09:29:59;;;;;;;21.27;15.07;;;;;;;16.42;95.87;98938.56;5192456;22;20572;-92
2022/10/11 09:32:03;;;;;;;20.83;14.40;;;;;;;16.38;96.49;98937.97;5220658;22;20584;-92
2022/10/11 09:34:11;;;;;;;21.47;14.90;;;;;;;16.44;97.00;98937.50;5169964;23;20963;-92
2022/10/11 09:36:20;;;;;;;23.50;13.67;;;;;;;16.43;94.69;98946.34;5195350;22;20607;-91
2022/10/11 09:38:34;;;;;;;21.87;14.57;;;;;;;16.42;95.71;98941.19;5196078;22;20892;-92
2022/10/11 09:40:46;;;;;;;21.93;15.80;;;;;;;16.49;96.72;98942.41;5223173;22;20571;-92
2022/10/11 09:42:50;;;;;;;20.53;14.90;;;;;;;16.55;97.29;98938.34;5222789;22;20599;-91
2022/10/11 09:44:54;;;;;;;21.10;15.30;;;;;;;16.57;95.08;98936.41;5170220;23;20887;-91
2022/10/11 09:46:57;;;;;;;21.40;14.17;;;;;;;16.54;96.21;98941.91;5192343;22;20601;-91
2022/10/11 09:49:03;;;;;;;19.87;13.67;;;;;;;16.54;94.90;98949.00;5164419;23;21201;-92
2022/10/11 09:51:13;;;;;;;18.13;14.00;;;;;;;16.61;94.63;98940.50;5216355;22;20608;-92
2022/10/11 09:53:18;;;;;;;25.60;16.27;;;;;;;16.60;95.12;98938.78;5165508;23;20624;-92
2022/10/11 09:55:31;;;;;;;23.73;16.50;;;;;;;16.64;95.25;98939.38;5165075;23;20637;-92
2022/10/11 09:57:36;;;;;;;27.27;16.40;;;;;;;16.68;94.93;98948.72;5165468;23;20674;-92
2022/10/11 09:59:39;;;;;;;22.53;14.80;;;;;;;16.69;95.55;98951.25;5192726;22;20582;-91
2022/10/11 10:01:43;;;;;;;25.03;14.30;;;;;;;16.68;93.50;98948.72;5190078;22;21125;-92
2022/10/11 10:03:46;;;;;;;17.30;14.17;;;;;;;16.63;93.78;98946.47;5216052;22;20586;-91
2022/10/11 10:06:04;;;;;;;18.47;13.77;;;;;;;16.67;94.89;98945.28;5189995;22;20554;-92
2022/10/11 10:08:25;;;;;;;21.37;13.90;;;;;;;16.73;94.39;98939.53;5189245;22;20590;-92
2022/10/11 10:10:33;;;;;;;18.10;14.07;;;;;;;16.76;93.02;98941.88;5164181;23;20595;-91
2022/10/11 10:12:37;;;;;;;20.33;15.07;;;;;;;16.81;93.92;98947.66;5190742;22;20546;-92
2022/10/11 10:14:40;;;;;;;20.47;14.10;;;;;;;16.83;92.71;98942.25;5190434;22;21253;-91
2022/10/11 10:16:43;;;;;;;17.07;13.73;;;;;;;16.80;93.97;98947.75;5188875;22;20601;-91
2022/10/11 10:18:50;;;;;;;16.53;13.23;;;;;;;16.74;93.54;98938.53;5190071;22;20564;-91
2022/10/11 10:20:55;;;;;;;21.73;14.13;;;;;;;16.77;93.25;98937.47;5190555;22;20564;-91
2022/10/11 10:22:59;;;;;;;24.00;14.17;;;;;;;16.70;93.51;98941.53;5161546;23;20591;-91
2022/10/11 10:25:06;;;;;;;18.70;12.87;;;;;;;16.68;93.33;98939.03;5162094;23;20675;-91
2022/10/11 10:27:20;;;;;;;19.03;14.50;;;;;;;16.71;93.30;98936.16;5164374;23;20673;-91
2022/10/11 10:29:23;;;;;;;18.25;14.43;;;;;;;16.78;94.26;98941.75;5162893;23;20708;-92
2022/10/11 10:31:30;;;;;;;23.13;14.03;;;;;;;16.86;93.16;98942.84;5187745;22;20177;-91
2022/10/11 10:33:54;;;;;;;17.33;12.67;;;;;;;16.91;92.91;98939.84;5162565;23;20587;-92
2022/10/11 10:36:01;;;;;;;18.83;13.33;;;;;;;16.98;94.40;98936.59;5162429;23;20595;-92
2022/10/11 10:38:12;;;;;;;22.03;14.40;;;;;;;17.03;93.46;98937.91;5186594;22;20632;-93
2022/10/11 10:40:20;;;;;;;20.87;14.20;;;;;;;17.04;93.19;98936.91;5187180;22;20577;-92
2022/10/11 10:42:23;;;;;;;20.10;14.67;;;;;;;17.14;94.10;98943.13;5163949;23;20571;-92
2022/10/11 10:44:26;;;;;;;21.73;14.40;;;;;;;17.27;93.96;98943.81;5164132;23;20678;-92
2022/10/11 10:46:46;;;;;;;24.90;14.43;;;;;;;17.40;93.94;98948.97;5165932;22;20576;-92
2022/10/11 10:48:53;;;;;;;20.10;14.80;;;;;;;17.41;91.78;98940.94;5188572;22;20584;-91
2022/10/11 10:51:26;;;;;;;19.30;13.17;;;;;;;17.44;92.21;98942.44;5189456;22;20571;-92
2022/10/11 10:53:34;;;;;;;19.80;14.00;;;;;;;17.49;91.96;98941.94;5190553;22;20586;-92
2022/10/11 10:55:42;;;;;;;26.03;15.47;;;;;;;17.47;90.04;98940.41;5163657;23;20641;-91
2022/10/11 10:57:56;;;;;;;21.00;14.30;;;;;;;17.52;90.60;98943.50;5213604;22;20999;-91
2022/10/11 11:00:11;;;;;;;20.63;14.07;;;;;;;17.51;89.87;98931.28;5189724;22;20654;-90
2022/10/11 11:02:17;;;;;;;21.37;14.20;;;;;;;17.58;90.26;98935.91;5189459;22;20574;-92
2022/10/11 11:04:45;;;;;;;17.77;13.53;;;;;;;17.66;89.51;98936.09;5191676;22;20637;-91
2022/10/11 11:06:50;;;;;;;16.80;12.73;;;;;;;17.72;89.97;98921.56;5165349;23;21037;-92
2022/10/11 11:09:04;;;;;;;20.07;11.40;;;;;;;17.81;88.13;98926.91;5188998;22;20637;-93
2022/10/11 11:11:17;;;;;;;19.33;12.33;;;;;;;17.78;87.53;98919.25;5189317;22;20568;-92
2022/10/11 11:13:27;;;;;;;17.47;11.87;;;;;;;17.92;88.74;98920.72;5189356;22;20582;-93
2022/10/11 11:15:35;;;;;;;15.53;10.30;;;;;;;18.06;86.73;98919.44;5160404;23;20594;-91
2022/10/11 11:17:52;;;;;;;19.60;13.10;;;;;;;18.14;86.92;98921.47;5156493;23;20960;-93
2022/10/11 11:20:08;;;;;;;12.67;11.33;;;;;;;18.09;86.28;98919.19;5161740;23;20569;-91
2022/10/11 11:22:16;;;;;;;15.67;10.80;;;;;;;18.06;86.79;98916.78;5184998;22;21127;-93
2022/10/11 11:24:27;;;;;;;15.37;11.57;;;;;;;18.05;85.76;98927.50;5185133;22;20587;-93
2022/10/11 11:26:38;;;;;;;14.20;10.90;;;;;;;17.94;87.00;98915.19;5187695;22;21503;-94
2022/10/11 11:28:53;;;;;;;17.40;11.67;;;;;;;17.92;85.72;98911.03;5185799;22;20578;-93
2022/10/11 11:31:03;;;;;;;17.13;11.23;;;;;;;17.93;87.02;98915.31;5162736;23;21371;-92
2022/10/11 11:33:15;;;;;;;15.73;10.83;;;;;;;17.92;85.32;98914.50;5184953;22;20587;-95
2022/10/11 11:35:26;;;;;;;14.87;9.90;;;;;;;17.82;85.58;98918.03;5162230;23;20561;-96
2022/10/11 11:37:32;;;;;;;13.90;10.20;;;;;;;17.78;85.61;98921.88;5163249;23;21474;-96
2022/10/11 11:39:37;;;;;;;16.35;11.40;;;;;;;17.77;85.74;98917.59;5161157;23;20713;-96
2022/10/11 11:41:45;;;;;;;16.37;10.53;;;;;;;17.71;85.46;98912.84;5164433;23;20223;-93
2022/10/11 11:43:57;;;;;;;14.30;10.20;;;;;;;17.73;86.05;98905.63;5164449;23;20603;-95
2022/10/11 11:46:05;;;;;;;13.53;10.27;;;;;;;17.78;85.78;98907.88;5163522;23;20603;-95
2022/10/11 11:48:13;;;;;;;15.43;10.10;;;;;;;17.80;86.12;98908.56;5163564;23;20687;-95
2022/10/11 11:50:21;;;;;;;12.37;9.27;;;;;;;17.83;85.67;98909.16;5165059;23;20927;-96
2022/10/11 11:52:29;;;;;;;15.37;9.30;;;;;;;17.92;85.16;98902.25;5189286;22;20701;-95
2022/10/11 11:54:39;;;;;;;15.53;9.13;;;;;;;18.03;86.51;98908.31;5163954;23;20623;-94
2022/10/11 11:56:51;;;;;;;17.73;9.93;;;;;;;18.15;86.16;98899.38;5162191;23;20627;-94
2022/10/11 11:59:02;;;;;;;17.10;11.00;;;;;;;18.26;86.00;98907.22;5161551;23;20586;-94
2022/10/11 12:01:15;;;;;;;14.03;11.10;;;;;;;18.36;85.71;98908.06;5160702;23;20584;-95
2022/10/11 12:03:22;;;;;;;14.27;10.00;;;;;;;18.40;85.50;98904.19;5186901;22;21146;-95
2022/10/11 12:05:27;;;;;;;16.67;11.73;;;;;;;18.41;85.85;98899.59;5186912;22;20608;-96
2022/10/11 12:07:30;;;;;;;21.43;10.30;;;;;;;18.43;85.16;98905.63;5188217;22;20610;-94
2022/10/11 12:09:38;;;;;;;15.20;10.50;;;;;;;18.46;85.20;98910.63;5187866;22;20603;-94
2022/10/11 12:11:48;;;;;;;18.67;11.30;;;;;;;18.50;84.40;98912.03;5162724;23;20565;-94
2022/10/11 12:13:53;;;;;;;12.47;9.93;;;;;;;18.49;85.00;98906.88;5188909;22;20586;-94
2022/10/11 12:16:12;;;;;;;13.57;10.17;;;;;;;18.50;85.30;98906.75;5189534;22;20622;-94
2022/10/11 12:18:17;;;;;;;14.37;10.40;;;;;;;18.52;84.87;98907.47;5165630;23;20615;-94
2022/10/11 12:20:23;;;;;;;16.57;10.70;;;;;;;18.52;84.88;98896.03;5162363;23;20650;-96
2022/10/11 12:22:59;;;;;;;14.83;9.53;;;;;;;18.54;84.13;98904.69;5162497;23;20587;-95
2022/10/11 12:25:42;;;;;;;11.80;9.10;;;;;;;18.55;83.33;98898.41;5162405;23;20593;-94
2022/10/11 12:27:47;;;;;;;14.93;8.60;;;;;;;18.55;83.70;98895.78;5188378;22;20978;-95
2022/10/11 12:29:50;;;;;;;10.60;9.50;;;;;;;18.52;83.47;98891.59;5161809;23;20590;-93
2022/10/11 12:32:26;;;;;;;10.83;8.47;;;;;;;18.51;82.94;98897.84;5189323;22;20906;-94
2022/10/11 12:34:34;;;;;;;12.60;9.40;;;;;;;18.47;83.99;98892.97;5142154;23;20646;-95
2022/10/11 12:36:42;;;;;;;13.67;10.03;;;;;;;18.45;84.10;98892.28;5213636;22;20668;-95
2022/10/11 12:38:45;;;;;;;16.10;9.57;;;;;;;18.45;84.88;98892.28;5187708;22;20610;-94
2022/10/11 12:40:53;;;;;;;12.73;9.00;;;;;;;18.45;83.86;98890.47;5185670;22;21396;-94
2022/10/11 12:43:26;;;;;;;12.23;9.03;;;;;;;18.49;82.89;98894.53;5186768;22;20567;-94
2022/10/11 12:45:31;;;;;;;11.20;8.80;;;;;;;18.50;83.28;98895.34;5161263;23;20588;-95
2022/10/11 12:47:38;;;;;;;12.63;9.20;;;;;;;18.53;83.02;98890.63;5161106;23;20580;-94
2022/10/11 12:49:52;;;;;;;15.17;9.13;;;;;;;18.55;82.75;98880.78;5187249;22;20584;-95
2022/10/11 12:52:00;;;;;;;13.47;10.13;;;;;;;18.57;82.02;98883.28;5164106;22;20564;-95
2022/10/11 12:54:14;;;;;;;15.53;11.20;;;;;;;18.62;83.04;98879.25;5188890;22;20582;-94
2022/10/11 12:56:42;;;;;;;14.47;9.93;;;;;;;18.69;83.42;98885.66;5187026;22;20600;-95
2022/10/11 12:58:47;;;;;;;13.23;9.20;;;;;;;18.73;82.78;98879.13;5189838;22;21096;-95
2022/10/11 13:01:15;;;;;;;20.97;10.30;;;;;;;18.75;83.77;98882.50;5160794;23;20581;-91
2022/10/11 13:03:28;;;;;;;11.80;9.00;;;;;;;18.78;82.76;98878.72;5158827;23;20618;-90
2022/10/11 13:05:41;;;;;;;15.60;9.30;;;;;;;18.79;83.10;98877.75;5184040;22;21013;-91
2022/10/11 13:07:48;;;;;;;13.60;8.70;;;;;;;18.81;82.13;98886.38;5186291;22;21178;-91
2022/10/11 13:09:53;;;;;;;12.00;9.53;;;;;;;18.81;83.16;98881.94;5187420;22;20631;-92
2022/10/11 13:12:01;;;;;;;14.63;9.03;;;;;;;18.80;81.79;98874.97;5186047;22;20589;-91
2022/10/11 13:14:09;;;;;;;11.73;8.90;;;;;;;18.82;81.65;98878.31;5212625;22;21264;-92
2022/10/11 13:16:15;;;;;;;11.93;8.53;;;;;;;18.78;81.42;98882.22;5160950;23;20607;-92
2022/10/11 13:18:21;;;;;;;10.57;8.20;;;;;;;18.77;82.31;98880.53;5160366;23;20606;-92
2022/10/11 13:20:26;;;;;;;12.33;8.83;;;;;;;18.74;80.84;98870.22;5184956;22;20565;-92
2022/10/11 13:22:34;;;;;;;13.80;10.60;;;;;;;18.73;80.95;98865.91;5161429;23;21157;-91
2022/10/11 13:24:38;;;;;;;20.73;8.87;;;;;;;18.76;81.84;98870.09;5214338;22;21110;-92
2022/10/11 13:26:43;;;;;;;13.83;9.23;;;;;;;18.79;80.79;98868.00;5210521;22;20583;-92
2022/10/11 13:28:48;;;;;;;12.80;8.50;;;;;;;18.85;82.14;98861.34;5186354;22;20619;-92
2022/10/11 13:30:53;;;;;;;17.47;10.07;;;;;;;18.79;80.02;98859.25;5159786;23;20590;-90
2022/10/11 13:32:56;;;;;;;15.80;9.50;;;;;;;18.82;81.50;98861.63;5186663;22;21470;-91
2022/10/11 13:35:02;;;;;;;12.63;9.30;;;;;;;18.87;81.44;98869.97;5160744;23;20627;-91
2022/10/11 13:37:05;;;;;;;13.70;9.17;;;;;;;18.91;81.84;98864.28;5160244;23;21000;-91
2022/10/11 13:39:24;;;;;;;13.53;9.30;;;;;;;18.96;82.19;98860.25;5160542;23;20597;-91
2022/10/11 13:41:34;;;;;;;15.93;10.03;;;;;;;19.01;82.89;98859.84;5161546;23;20628;-91
2022/10/11 13:43:37;;;;;;;12.27;8.90;;;;;;;18.99;81.44;98862.63;5212820;22;20575;-90
2022/10/11 13:45:41;;;;;;;14.93;9.43;;;;;;;18.97;81.94;98861.09;5212664;22;20671;-91
2022/10/11 13:47:46;;;;;;;12.13;9.30;;;;;;;18.95;81.21;98863.88;5186879;22;20581;-91
2022/10/11 13:50:01;;;;;;;15.40;9.77;;;;;;;18.91;80.68;98864.28;5187386;22;20675;-91
2022/10/11 13:52:13;;;;;;;12.90;10.00;;;;;;;18.86;80.51;98853.28;5186190;22;20581;-91
2022/10/11 13:54:16;;;;;;;16.60;10.03;;;;;;;18.73;81.00;98854.50;5186431;22;20624;-92
2022/10/11 13:56:19;;;;;;;12.47;9.90;;;;;;;18.63;81.49;98854.50;5187906;22;20579;-92
2022/10/11 13:58:26;;;;;;;15.10;9.93;;;;;;;18.58;81.07;98848.78;5163169;23;21217;-92
2022/10/11 14:00:32;;;;;;;17.83;9.70;;;;;;;18.55;82.01;98849.06;5163329;23;20593;-91
2022/10/11 14:02:37;;;;;;;16.87;9.90;;;;;;;18.52;82.79;98859.91;5164246;23;20581;-92
2022/10/11 14:04:41;;;;;;;14.93;9.87;;;;;;;18.53;82.72;98850.16;5159832;23;20720;-91
2022/10/11 14:06:46;;;;;;;13.60;9.60;;;;;;;18.55;82.80;98851.69;5186123;22;20578;-91
2022/10/11 14:08:53;;;;;;;13.07;9.33;;;;;;;18.57;82.06;98856.84;5187188;22;20635;-91
2022/10/11 14:10:56;;;;;;;13.17;9.73;;;;;;;18.53;83.04;98853.63;5187162;22;20592;-91
2022/10/11 14:13:07;;;;;;;13.37;9.97;;;;;;;18.55;83.15;98851.69;5186227;22;20978;-91
2022/10/11 14:15:24;;;;;;;15.50;10.13;;;;;;;18.58;82.69;98853.22;5160136;23;20577;-91
2022/10/11 14:17:40;;;;;;;17.40;9.97;;;;;;;18.54;82.05;98857.94;5186957;22;20617;-91
2022/10/11 14:19:43;;;;;;;15.70;9.77;;;;;;;18.50;81.96;98853.88;5208620;22;20596;-90
2022/10/11 14:21:50;;;;;;;14.40;9.03;;;;;;;18.47;82.57;98848.88;5158685;23;20588;-90
2022/10/11 14:23:55;;;;;;;13.07;9.47;;;;;;;18.48;81.50;98849.72;5159363;23;20628;-90
2022/10/11 14:25:58;;;;;;;12.97;10.10;;;;;;;18.50;81.82;98851.25;5159024;23;20580;-91
2022/10/11 14:28:04;;;;;;;16.70;10.63;;;;;;;18.51;82.17;98852.09;5186716;22;20575;-91
2022/10/11 14:30:13;;;;;;;15.33;10.60;;;;;;;18.47;81.20;98854.16;5186704;22;20635;-91
2022/10/11 14:32:33;;;;;;;16.77;11.20;;;;;;;18.40;81.50;98854.00;5159749;23;21010;-90
2022/10/11 14:34:38;;;;;;;14.37;10.00;;;;;;;18.38;82.08;98840.09;5156754;23;20617;-90
2022/10/11 14:36:41;;;;;;;15.00;10.70;;;;;;;18.38;81.66;98848.03;5182076;22;20581;-90
2022/10/11 14:38:44;;;;;;;13.47;10.17;;;;;;;18.37;82.06;98846.34;5159517;23;20591;-89
2022/10/11 14:40:47;;;;;;;20.30;11.97;;;;;;;18.36;81.06;98842.88;5186462;22;20579;-90
2022/10/11 14:42:50;;;;;;;13.77;10.40;;;;;;;18.32;81.38;98841.47;5162728;23;20606;-90
2022/10/11 14:44:53;;;;;;;17.50;11.30;;;;;;;18.31;81.69;98844.25;5187514;22;20948;-90
2022/10/11 14:46:56;;;;;;;23.80;12.40;;;;;;;18.30;82.33;98845.22;5212832;22;20589;-90
2022/10/11 14:48:59;;;;;;;14.30;10.20;;;;;;;18.29;82.67;98846.19;5185656;22;20674;-89
2022/10/11 14:51:05;;;;;;;15.83;9.83;;;;;;;18.27;82.09;98842.84;5184125;22;20666;-89
2022/10/11 14:53:09;;;;;;;15.30;10.67;;;;;;;18.27;83.18;98848.13;5160589;23;21124;-89
2022/10/11 14:55:13;;;;;;;16.30;14.23;;;;;;;18.26;83.29;98844.63;5214381;22;21106;-89
2022/10/11 14:57:16;;;;;;;21.07;12.03;;;;;;;18.27;83.63;98851.59;5187198;22;20563;-89
2022/10/11 14:59:20;;;;;;;20.00;12.37;;;;;;;18.27;83.38;98843.69;5187588;22;20709;-89
2022/10/11 15:01:24;;;;;;;13.37;11.00;;;;;;;18.24;83.27;98840.47;5161803;23;20582;-89
2022/10/11 15:03:27;;;;;;;15.13;10.60;;;;;;;18.27;83.86;98853.41;5188480;22;20646;-89
2022/10/11 15:05:30;;;;;;;15.93;10.13;;;;;;;18.25;83.82;98855.34;5187589;22;20577;-90
2022/10/11 15:07:37;;;;;;;17.67;11.07;;;;;;;18.25;83.65;98852.69;5187534;22;20638;-89
2022/10/11 15:09:41;;;;;;;14.53;10.30;;;;;;;18.27;84.37;98853.41;5162272;23;20577;-89
2022/10/11 15:11:44;;;;;;;19.03;11.20;;;;;;;18.28;84.33;98850.66;5187074;22;20573;-89
2022/10/11 15:13:47;;;;;;;13.57;10.00;;;;;;;18.30;84.53;98847.88;5161306;23;20577;-90
2022/10/11 15:15:50;;;;;;;16.80;10.77;;;;;;;18.29;83.92;98847.00;5185580;22;20576;-89
2022/10/11 15:17:54;;;;;;;14.57;10.57;;;;;;;18.28;84.39;98839.22;5212426;22;20552;-89
2022/10/11 15:19:58;;;;;;;13.63;10.43;;;;;;;18.27;84.31;98843.69;5212233;22;20611;-89
2022/10/11 15:22:04;;;;;;;16.67;11.20;;;;;;;18.27;84.79;98843.69;5186046;22;21314;-89
2022/10/11 15:24:09;;;;;;;15.57;11.20;;;;;;;18.27;84.02;98842.84;5212188;22;20601;-90
2022/10/11 15:26:14;;;;;;;18.43;11.00;;;;;;;18.25;84.92;98839.50;5186472;22;20584;-89
2022/10/11 15:28:23;;;;;;;15.80;10.70;;;;;;;18.24;85.11;98843.13;5160101;23;21309;-89
2022/10/11 15:30:29;;;;;;;18.47;10.37;;;;;;;18.25;84.86;98840.34;5182267;22;20646;-90
2022/10/11 15:32:32;;;;;;;18.53;11.20;;;;;;;18.27;84.90;98840.22;5185530;22;20604;-90
2022/10/11 15:34:35;;;;;;;13.27;10.30;;;;;;;18.26;84.74;98836.72;5161734;23;20645;-89
2022/10/11 15:36:40;;;;;;;17.83;9.87;;;;;;;18.22;84.98;98835.34;5185307;22;20593;-90
2022/10/11 15:38:44;;;;;;;15.70;9.67;;;;;;;18.16;85.36;98827.09;5181488;22;20596;-90
2022/10/11 15:40:49;;;;;;;14.07;9.90;;;;;;;18.07;85.63;98833.97;5184381;22;20616;-90
2022/10/11 15:42:53;;;;;;;13.80;10.30;;;;;;;18.02;86.58;98832.69;5213552;22;20584;-90
2022/10/11 15:44:57;;;;;;;16.27;11.40;;;;;;;17.93;86.24;98830.84;5188181;22;21183;-90
2022/10/11 15:47:00;;;;;;;20.33;11.20;;;;;;;17.88;86.21;98826.94;5163355;23;21216;-90
2022/10/11 15:49:11;;;;;;;14.70;10.60;;;;;;;17.83;86.05;98824.69;5209912;22;20582;-90
2022/10/11 15:51:14;;;;;;;18.00;11.20;;;;;;;17.78;87.65;98833.97;5184881;22;20555;-90
2022/10/11 15:53:19;;;;;;;14.67;11.30;;;;;;;17.73;87.49;98831.72;5209291;22;20669;-90
2022/10/11 15:55:22;;;;;;;17.53;12.10;;;;;;;17.66;87.37;98824.44;5209491;22;20632;-90
2022/10/11 15:57:27;;;;;;;16.97;11.30;;;;;;;17.60;87.69;98835.53;5183459;22;20583;-90
2022/10/11 15:59:30;;;;;;;14.17;11.30;;;;;;;17.54;87.80;98826.31;5162986;23;20616;-90
2022/10/11 16:01:33;;;;;;;16.63;11.43;;;;;;;17.49;87.92;98833.78;5186176;22;21193;-90
2022/10/11 16:03:36;;;;;;;16.43;11.80;;;;;;;17.44;88.67;98831.66;5162335;23;20621;-90
2022/10/11 16:05:40;;;;;;;18.33;11.30;;;;;;;17.38;88.19;98833.03;5187053;22;20571;-89
2022/10/11 16:07:43;;;;;;;16.00;10.97;;;;;;;17.35;88.46;98830.66;5184740;22;20562;-89
2022/10/11 16:09:46;;;;;;;14.00;11.00;;;;;;;17.34;88.27;98830.78;5162006;23;20962;-89
2022/10/11 16:11:49;;;;;;;20.90;12.67;;;;;;;17.32;89.05;98832.69;5160327;23;21171;-90
2022/10/11 16:13:54;;;;;;;19.20;11.10;;;;;;;17.31;88.41;98829.22;5214973;22;20569;-89
2022/10/11 16:15:57;;;;;;;19.50;10.97;;;;;;;17.31;89.36;98826.59;5162648;23;20587;-90
2022/10/11 16:18:01;;;;;;;18.40;10.57;;;;;;;17.29;90.00;98825.03;5188570;22;20586;-90
2022/10/11 16:20:06;;;;;;;16.00;11.50;;;;;;;17.28;89.42;98824.22;5184607;22;20614;-90
2022/10/11 16:22:09;;;;;;;14.70;10.07;;;;;;;17.28;90.31;98826.84;5185465;22;21146;-90
2022/10/11 16:24:12;;;;;;;16.60;12.63;;;;;;;17.29;91.12;98825.03;5159279;23;20583;-89
2022/10/11 16:26:15;;;;;;;16.00;11.07;;;;;;;17.28;91.21;98823.38;5185888;22;20590;-89
2022/10/11 16:28:19;;;;;;;17.90;10.57;;;;;;;17.26;90.49;98823.50;5186015;22;20583;-89
2022/10/11 16:30:23;;;;;;;20.97;15.43;;;;;;;17.25;91.66;98824.47;5214426;22;20596;-90
2022/10/11 16:32:27;;;;;;;20.73;17.73;;;;;;;17.24;91.52;98827.22;5186784;22;20579;-89
2022/10/11 16:34:30;;;;;;;15.87;13.70;;;;;;;17.19;91.95;98826.75;5162178;23;20678;-90
2022/10/11 16:36:35;;;;;;;17.20;11.90;;;;;;;17.16;92.43;98824.38;5188896;22;20619;-89
2022/10/11 16:38:38;;;;;;;14.60;12.07;;;;;;;17.12;93.09;98830.84;5187196;22;21508;-90
2022/10/11 16:40:42;;;;;;;17.37;10.63;;;;;;;17.09;92.45;98831.09;5159044;23;21240;-89
2022/10/11 16:42:46;;;;;;;18.50;11.80;;;;;;;17.05;92.27;98834.97;5182978;22;20950;-90
2022/10/11 16:44:49;;;;;;;14.93;11.23;;;;;;;17.00;92.68;98835.34;5161300;23;21178;-90
2022/10/11 16:46:54;;;;;;;15.23;11.60;;;;;;;16.97;92.86;98837.38;5209859;22;20926;-90
2022/10/11 16:48:57;;;;;;;17.70;12.00;;;;;;;16.93;92.73;98840.38;5161499;23;20572;-90
2022/10/11 16:51:08;;;;;;;14.83;12.23;;;;;;;16.90;93.20;98844.13;5159467;23;20576;-90
2022/10/11 16:53:14;;;;;;;13.23;11.80;;;;;;;16.86;92.34;98842.69;5157909;23;20642;-90
2022/10/11 16:55:17;;;;;;;16.43;10.80;;;;;;;16.83;92.28;98847.38;5183646;22;20793;-90
2022/10/11 16:57:21;;;;;;;18.20;12.17;;;;;;;16.80;92.55;98850.28;5182303;22;20614;-90
2022/10/11 16:59:24;;;;;;;19.70;12.37;;;;;;;16.73;93.30;98841.16;5183192;22;21009;-90
2022/10/11 17:01:28;;;;;;;20.00;13.37;;;;;;;16.70;93.96;98837.00;5184617;22;20698;-90
2022/10/11 17:03:32;;;;;;;18.87;13.37;;;;;;;16.68;93.46;98844.19;5159758;23;20713;-90
2022/10/11 17:05:36;;;;;;;17.90;13.23;;;;;;;16.65;92.49;98848.88;5185308;22;20592;-89
2022/10/11 17:07:39;;;;;;;23.03;12.70;;;;;;;16.62;92.58;98847.31;5180751;22;20555;-90
2022/10/11 17:09:44;;;;;;;19.23;12.70;;;;;;;16.56;93.13;98842.53;5161049;23;20584;-89
2022/10/11 17:11:47;;;;;;;16.00;12.43;;;;;;;16.48;93.50;98840.63;5215206;22;20907;-90
2022/10/11 17:13:52;;;;;;;17.40;12.53;;;;;;;16.42;94.19;98847.25;5161754;23;21193;-91